Time;durP1;ratioP1;P1;durP2;ratioP2;P2;SDS_P1;SDS_P2;PMS_P1;PMS_P2;Temp;Humidity;BMP_temperature;BMP_pressure;BME280_temperature;BME280_humidity;BME280_pressure;Samples;Min_cycle;Max_cycle;Signal;HPM_P1;HPM_P2
2023/03/02 00:02:13;;;;;;;11.47;11.07;;;19.50;42.60;;;;;;4971706;28;20547;-53
2023/03/02 00:04:47;;;;;;;11.37;10.97;;;19.50;42.60;;;;;;4971918;28;20901;-51
2023/03/02 00:07:18;;;;;;;11.20;10.80;;;19.40;42.60;;;;;;4971840;28;20468;-52
2023/03/02 00:09:45;;;;;;;12.10;11.60;;;19.40;42.60;;;;;;4971887;28;20981;-51
2023/03/02 00:12:12;;;;;;;12.20;11.70;;;19.40;42.70;;;;;;4971671;28;20531;-54
2023/03/02 00:14:39;;;;;;;11.50;11.00;;;19.40;42.60;;;;;;4971849;28;20544;-52
2023/03/02 00:17:07;;;;;;;11.37;11.00;;;19.40;42.60;;;;;;4971800;28;20547;-50
2023/03/02 00:19:35;;;;;;;11.63;11.23;;;19.40;42.70;;;;;;4971838;28;20487;-53
2023/03/02 00:22:03;;;;;;;13.07;12.40;;;19.30;42.70;;;;;;4971188;28;20456;-54
2023/03/02 00:24:30;;;;;;;11.60;11.20;;;19.30;42.70;;;;;;4971713;28;20543;-52
2023/03/02 00:26:57;;;;;;;11.70;11.20;;;19.30;42.70;;;;;;4971247;28;21030;-51
2023/03/02 00:29:24;;;;;;;11.90;11.50;;;19.30;42.70;;;;;;4971731;28;20531;-56
2023/03/02 00:31:51;;;;;;;12.27;11.60;;;19.30;42.70;;;;;;4971651;28;20539;-55
2023/03/02 00:34:18;;;;;;;12.13;11.70;;;19.30;42.70;;;;;;4971478;28;20542;-52
2023/03/02 00:36:48;;;;;;;11.23;10.83;;;19.30;42.80;;;;;;4971349;28;20538;-51
2023/03/02 00:39:18;;;;;;;12.33;11.83;;;19.30;42.70;;;;;;4971379;28;20586;-53
2023/03/02 00:41:47;;;;;;;12.07;11.67;;;19.30;42.70;;;;;;4971246;28;20843;-52
2023/03/02 00:44:16;;;;;;;11.80;11.40;;;19.30;43.30;;;;;;4971507;28;20463;-52
2023/03/02 00:46:43;;;;;;;13.10;12.60;;;19.20;42.70;;;;;;4971170;28;20600;-51
2023/03/02 00:49:10;;;;;;;12.50;12.10;;;19.20;42.70;;;;;;4971052;28;20554;-52
2023/03/02 00:51:37;;;;;;;11.37;11.03;;;19.20;42.70;;;;;;4970989;28;20539;-55
2023/03/02 00:54:04;;;;;;;12.67;12.17;;;19.20;42.70;;;;;;4971691;28;20527;-55
2023/03/02 00:56:32;;;;;;;12.40;12.00;;;19.20;42.80;;;;;;4971048;28;20482;-53
2023/03/02 00:59:03;;;;;;;12.10;11.60;;;19.20;42.80;;;;;;4970995;28;20574;-54
2023/03/02 01:01:30;;;;;;;11.77;11.47;;;19.20;42.80;;;;;;4970200;28;20543;-56
2023/03/02 01:03:57;;;;;;;12.23;11.83;;;19.20;42.80;;;;;;4971008;28;20578;-53
2023/03/02 01:06:24;;;;;;;12.77;12.37;;;19.20;42.80;;;;;;4970972;28;20551;-51
2023/03/02 01:08:51;;;;;;;13.70;13.10;;;19.20;42.90;;;;;;4970876;28;20641;-53
2023/03/02 01:11:20;;;;;;;12.50;12.10;;;19.10;42.80;;;;;;4975305;28;20459;-54
2023/03/02 01:13:50;;;;;;;11.40;11.10;;;19.10;42.80;;;;;;4971728;28;20567;-54
2023/03/02 01:16:17;;;;;;;12.13;11.73;;;19.10;42.90;;;;;;4972069;28;20455;-54
2023/03/02 01:18:43;;;;;;;12.23;11.80;;;19.10;42.90;;;;;;4970413;28;20499;-54
2023/03/02 01:21:12;;;;;;;12.47;12.07;;;19.10;42.90;;;;;;4976254;28;20534;-52
2023/03/02 01:23:39;;;;;;;12.50;12.03;;;19.10;42.90;;;;;;4990186;28;21020;-53
2023/03/02 01:26:06;;;;;;;12.20;11.70;;;19.10;42.90;;;;;;4990028;28;20549;-52
2023/03/02 01:28:33;;;;;;;12.00;11.60;;;19.10;42.90;;;;;;4989883;28;20553;-49
2023/03/02 01:31:03;;;;;;;11.00;10.60;;;19.10;42.90;;;;;;4985797;28;20551;-51
2023/03/02 01:33:30;;;;;;;10.63;10.17;;;19.10;42.90;;;;;;4970661;28;20448;-54
2023/03/02 01:35:57;;;;;;;11.53;11.13;;;19.10;42.90;;;;;;4970641;28;20999;-53
2023/03/02 01:38:24;;;;;;;10.60;10.30;;;19.00;42.80;;;;;;4970290;28;20547;-51
2023/03/02 01:40:51;;;;;;;11.43;11.03;;;19.00;42.80;;;;;;4970903;28;20561;-51
2023/03/02 01:43:18;;;;;;;11.90;11.47;;;19.00;43.40;;;;;;4970553;28;20547;-53
2023/03/02 01:45:51;;;;;;;10.27;9.83;;;19.00;42.80;;;;;;4970399;28;20491;-51
2023/03/02 01:48:26;;;;;;;11.83;11.30;;;19.00;42.80;;;;;;4970222;28;20464;-51
2023/03/02 01:50:53;;;;;;;11.70;11.30;;;19.00;43.40;;;;;;4972746;28;20486;-49
2023/03/02 01:53:22;;;;;;;11.50;11.20;;;19.00;42.90;;;;;;4989774;28;20534;-51
2023/03/02 01:55:49;;;;;;;11.20;10.90;;;19.00;42.90;;;;;;4989651;28;20534;-52
2023/03/02 01:58:17;;;;;;;11.83;11.33;;;19.00;42.90;;;;;;4989547;28;20985;-51
2023/03/02 02:00:45;;;;;;;11.73;11.23;;;19.00;43.00;;;;;;4988270;28;20483;-51
2023/03/02 02:03:14;;;;;;;10.90;10.60;;;18.90;42.90;;;;;;4986349;28;20444;-54
2023/03/02 02:05:47;;;;;;;11.07;10.77;;;18.90;43.00;;;;;;4989699;28;20478;-50
2023/03/02 02:08:14;;;;;;;11.17;10.70;;;19.00;43.10;;;;;;4989443;28;20550;-50
2023/03/02 02:10:42;;;;;;;12.20;11.53;;;18.90;43.00;;;;;;4988899;28;20880;-51
2023/03/02 02:13:10;;;;;;;10.87;10.57;;;18.90;43.00;;;;;;4970008;28;20871;-49
2023/03/02 02:15:38;;;;;;;10.70;10.40;;;18.90;43.00;;;;;;4979389;28;20823;-52
2023/03/02 02:18:05;;;;;;;11.00;10.70;;;18.90;43.10;;;;;;4989106;28;20562;-52
2023/03/02 02:20:38;;;;;;;11.20;10.80;;;18.90;43.10;;;;;;4989414;28;20574;-53
2023/03/02 02:23:18;;;;;;;11.40;10.80;;;18.90;43.10;;;;;;4970215;28;20534;-51
2023/03/02 02:25:57;;;;;;;10.87;10.57;;;18.90;43.10;;;;;;4969782;28;20595;-54
2023/03/02 02:28:29;;;;;;;11.50;11.00;;;18.90;43.10;;;;;;4969777;28;20460;-50
2023/03/02 02:31:04;;;;;;;11.43;10.93;;;18.90;43.10;;;;;;4971499;28;20531;-54
2023/03/02 02:33:33;;;;;;;11.83;11.43;;;18.90;43.20;;;;;;4989298;28;20823;-54
2023/03/02 02:36:06;;;;;;;12.60;12.10;;;18.90;43.10;;;;;;4989243;28;20545;-54
2023/03/02 02:38:35;;;;;;;10.50;10.20;;;18.90;43.10;;;;;;4988968;28;20550;-52
2023/03/02 02:41:07;;;;;;;11.73;11.23;;;18.90;43.10;;;;;;4973692;28;20935;-54
2023/03/02 02:43:34;;;;;;;12.00;11.50;;;18.90;43.10;;;;;;4969787;28;20543;-52
2023/03/02 02:46:02;;;;;;;11.70;11.30;;;18.80;43.10;;;;;;4969792;28;20923;-54
2023/03/02 02:48:30;;;;;;;10.83;10.43;;;18.80;43.10;;;;;;4969404;28;20662;-56
2023/03/02 02:51:00;;;;;;;11.03;10.63;;;18.80;43.10;;;;;;4984605;28;20530;-52
2023/03/02 02:53:31;;;;;;;11.50;11.10;;;18.90;43.10;;;;;;4987274;28;20449;-49
2023/03/02 02:55:59;;;;;;;10.87;10.47;;;18.80;43.60;;;;;;4989029;28;20542;-53
2023/03/02 02:58:33;;;;;;;12.43;12.03;;;18.80;43.00;;;;;;4988736;28;20546;-51
2023/03/02 03:01:01;;;;;;;12.33;11.90;;;18.80;43.10;;;;;;4973461;28;20490;-54
2023/03/02 03:03:32;;;;;;;11.50;11.10;;;18.80;43.10;;;;;;4979489;28;20976;-53
2023/03/02 03:06:00;;;;;;;11.43;11.03;;;18.80;43.10;;;;;;4988944;28;20459;-55
2023/03/02 03:08:51;;;;;;;11.10;10.80;;;18.80;43.10;;;;;;4988657;28;20478;-54
2023/03/02 03:11:22;;;;;;;11.50;11.10;;;18.80;43.10;;;;;;4974201;28;20452;-50
2023/03/02 03:14:03;;;;;;;12.73;11.97;;;18.80;43.10;;;;;;4969401;28;20462;-49
2023/03/02 03:16:32;;;;;;;11.67;11.23;;;18.80;43.10;;;;;;4969194;28;20540;-53
2023/03/02 03:19:05;;;;;;;11.27;10.87;;;18.80;43.20;;;;;;4969167;28;20554;-54
2023/03/02 03:21:32;;;;;;;11.73;11.33;;;18.70;43.10;;;;;;4987985;28;20486;-54
2023/03/02 03:23:58;;;;;;;11.30;10.90;;;18.80;43.10;;;;;;4990043;28;20545;-52
2023/03/02 03:26:25;;;;;;;11.57;11.07;;;18.70;43.10;;;;;;4991758;28;20553;-55
2023/03/02 03:28:56;;;;;;;11.40;11.00;;;18.80;43.10;;;;;;4980724;28;20475;-53
2023/03/02 03:31:24;;;;;;;10.43;10.20;;;18.80;43.10;;;;;;4972493;28;20443;-53
2023/03/02 03:33:50;;;;;;;11.00;10.60;;;18.80;43.10;;;;;;4972464;28;20471;-56
2023/03/02 03:36:17;;;;;;;10.83;10.53;;;18.80;43.10;;;;;;4972482;28;20479;-56
2023/03/02 03:38:44;;;;;;;10.57;10.10;;;18.70;43.00;;;;;;4976090;28;20472;-53
2023/03/02 03:41:11;;;;;;;11.53;11.13;;;18.70;43.00;;;;;;4972461;28;20578;-54
2023/03/02 03:43:38;;;;;;;11.50;11.13;;;18.70;43.00;;;;;;4972418;28;20811;-56
2023/03/02 03:46:06;;;;;;;11.43;11.00;;;18.70;43.00;;;;;;4972388;28;20881;-49
2023/03/02 03:48:33;;;;;;;10.47;10.17;;;18.70;43.00;;;;;;4979460;28;20517;-49
2023/03/02 03:51:01;;;;;;;10.70;10.30;;;18.70;43.00;;;;;;4991580;28;20538;-53
2023/03/02 03:53:28;;;;;;;10.83;10.53;;;18.70;43.00;;;;;;4991559;28;21033;-51
2023/03/02 03:55:55;;;;;;;11.40;11.00;;;18.70;43.00;;;;;;4991583;28;20539;-54
2023/03/02 03:58:22;;;;;;;10.50;10.10;;;18.70;43.00;;;;;;4984942;28;20475;-53
2023/03/02 04:00:49;;;;;;;11.30;10.90;;;18.70;43.00;;;;;;4972021;28;20579;-52
2023/03/02 04:03:18;;;;;;;10.83;10.43;;;18.70;43.00;;;;;;4971412;28;20527;-54
2023/03/02 04:05:46;;;;;;;10.93;10.23;;;18.70;42.90;;;;;;4972027;28;20448;-51
2023/03/02 04:08:13;;;;;;;10.23;9.93;;;18.70;43.00;;;;;;4972981;28;20934;-52
2023/03/02 04:10:40;;;;;;;11.00;10.60;;;18.70;43.00;;;;;;4985086;28;20535;-55
2023/03/02 04:13:08;;;;;;;10.10;9.60;;;18.70;43.00;;;;;;4990964;28;20973;-51
2023/03/02 04:15:35;;;;;;;11.17;10.87;;;18.70;43.00;;;;;;4991324;28;20494;-53
2023/03/02 04:18:02;;;;;;;12.33;11.93;;;18.70;42.90;;;;;;4991028;28;20554;-52
2023/03/02 04:20:31;;;;;;;11.57;11.17;;;18.70;42.80;;;;;;4990810;28;20510;-54
2023/03/02 04:22:58;;;;;;;11.70;11.30;;;18.70;42.70;;;;;;4991040;28;20451;-53
2023/03/02 04:25:27;;;;;;;12.00;11.50;;;18.70;42.70;;;;;;4991097;28;20486;-55
2023/03/02 04:27:54;;;;;;;12.00;11.60;;;18.80;42.70;;;;;;4991041;28;20558;-51
2023/03/02 04:30:24;;;;;;;12.00;11.60;;;18.70;42.60;;;;;;4972938;28;21014;-56
2023/03/02 04:32:51;;;;;;;12.00;11.60;;;18.70;42.60;;;;;;4971661;28;20491;-53
2023/03/02 04:35:18;;;;;;;11.50;10.80;;;18.70;42.60;;;;;;4971559;28;20530;-50
2023/03/02 04:37:46;;;;;;;11.80;11.30;;;18.70;42.70;;;;;;4981616;28;20876;-52
2023/03/02 04:40:14;;;;;;;11.97;11.50;;;18.70;42.70;;;;;;4990729;28;20487;-56
2023/03/02 04:42:43;;;;;;;11.97;11.57;;;18.70;42.60;;;;;;4990670;28;20537;-52
2023/03/02 04:45:11;;;;;;;11.83;11.43;;;18.70;42.60;;;;;;4990755;28;20454;-54
2023/03/02 04:47:38;;;;;;;11.53;11.10;;;18.70;42.50;;;;;;4981446;28;20511;-56
2023/03/02 04:50:06;;;;;;;12.00;11.60;;;18.70;42.60;;;;;;4971578;28;20495;-52
2023/03/02 04:52:33;;;;;;;11.27;10.97;;;18.70;42.50;;;;;;4971125;28;20559;-49
2023/03/02 04:55:02;;;;;;;10.73;10.43;;;18.70;42.60;;;;;;4971190;28;20483;-50
2023/03/02 04:57:28;;;;;;;10.90;10.60;;;18.70;42.60;;;;;;4978259;28;20528;-54
2023/03/02 04:59:55;;;;;;;12.20;11.70;;;18.70;42.60;;;;;;4990626;28;20874;-54
2023/03/02 05:02:22;;;;;;;11.03;10.63;;;18.70;42.60;;;;;;4990517;28;20471;-53
2023/03/02 05:04:49;;;;;;;10.77;10.30;;;18.70;42.60;;;;;;4990639;28;20478;-55
2023/03/02 05:07:16;;;;;;;9.63;9.30;;;18.70;42.60;;;;;;4984643;28;20551;-56
2023/03/02 05:09:43;;;;;;;12.40;11.80;;;18.70;42.70;;;;;;4971042;28;20958;-55
2023/03/02 05:12:11;;;;;;;11.27;10.87;;;18.80;42.80;;;;;;4970927;28;20892;-52
2023/03/02 05:14:38;;;;;;;10.93;10.60;;;18.70;42.70;;;;;;4971090;28;20487;-54
2023/03/02 05:17:05;;;;;;;11.60;11.10;;;18.70;42.70;;;;;;4974516;28;20530;-55
2023/03/02 05:19:32;;;;;;;11.90;11.50;;;18.70;42.70;;;;;;4990446;28;20875;-57
2023/03/02 05:21:59;;;;;;;11.63;11.33;;;18.70;43.30;;;;;;4990111;28;20525;-54
2023/03/02 05:24:26;;;;;;;11.67;11.27;;;18.70;42.80;;;;;;4990113;28;20508;-52
2023/03/02 05:26:53;;;;;;;11.00;10.43;;;18.70;42.80;;;;;;4987981;28;20490;-56
2023/03/02 05:29:21;;;;;;;12.20;11.70;;;18.70;42.80;;;;;;4970885;28;20534;-52
2023/03/02 05:31:49;;;;;;;11.00;10.50;;;18.80;43.00;;;;;;4970542;28;20478;-55
2023/03/02 05:34:17;;;;;;;11.33;10.83;;;18.80;43.30;;;;;;4970856;28;20490;-56
2023/03/02 05:36:44;;;;;;;15.73;11.90;;;18.80;43.80;;;;;;4984393;28;20965;-55
2023/03/02 05:39:12;;;;;;;12.13;11.53;;;18.80;44.70;;;;;;4990011;28;20482;-54
2023/03/02 05:41:39;;;;;;;12.60;11.77;;;18.80;45.60;;;;;;4989793;28;20573;-54
2023/03/02 05:44:10;;;;;;;13.10;12.30;;;18.80;46.10;;;;;;4984304;28;20531;-51
2023/03/02 05:46:39;;;;;;;14.23;13.10;;;18.80;46.10;;;;;;4973900;28;20542;-56
2023/03/02 05:49:06;;;;;;;12.30;11.40;;;18.90;46.60;;;;;;4987496;28;20874;-53
2023/03/02 05:51:33;;;;;;;13.00;12.10;;;18.80;46.40;;;;;;4989651;28;20534;-55
2023/03/02 05:54:00;;;;;;;13.57;12.50;;;18.80;46.40;;;;;;4989777;28;20535;-53
2023/03/02 05:56:27;;;;;;;11.67;11.07;;;18.80;46.10;;;;;;4989820;28;20530;-57
2023/03/02 05:58:53;;;;;;;13.00;12.17;;;18.80;46.00;;;;;;4989649;28;21016;-53
2023/03/02 06:01:20;;;;;;;13.30;12.50;;;18.80;45.80;;;;;;4989436;28;20519;-55
2023/03/02 06:03:49;;;;;;;12.50;11.40;;;18.80;45.80;;;;;;4989723;28;20490;-58
2023/03/02 06:06:16;;;;;;;14.33;13.07;;;18.80;45.60;;;;;;4989629;28;20957;-56
2023/03/02 06:08:44;;;;;;;12.97;11.90;;;18.80;45.50;;;;;;4989581;28;20506;-56
2023/03/02 06:11:11;;;;;;;17.27;14.10;;;18.80;45.50;;;;;;4989480;28;20478;-55
2023/03/02 06:13:39;;;;;;;12.93;12.43;;;18.80;45.50;;;;;;4989482;28;20459;-56
2023/03/02 06:16:07;;;;;;;12.67;11.90;;;18.80;45.50;;;;;;4989490;28;20860;-55
2023/03/02 06:18:34;;;;;;;13.13;12.13;;;18.80;45.40;;;;;;4989364;28;20525;-54
2023/03/02 06:21:02;;;;;;;13.80;13.03;;;18.80;45.40;;;;;;4989508;28;20566;-54
2023/03/02 06:23:29;;;;;;;11.50;10.80;;;18.80;45.40;;;;;;4989275;28;20482;-52
2023/03/02 06:25:57;;;;;;;13.50;12.40;;;18.80;45.50;;;;;;4989438;28;20883;-53
2023/03/02 06:28:24;;;;;;;11.73;11.33;;;18.80;45.20;;;;;;4989228;28;20586;-57
2023/03/02 06:30:52;;;;;;;12.37;11.67;;;18.80;45.20;;;;;;4989372;28;20478;-58
2023/03/02 06:33:20;;;;;;;12.73;11.80;;;18.80;45.20;;;;;;4989165;28;20462;-55
2023/03/02 06:35:47;;;;;;;12.23;11.40;;;18.80;45.20;;;;;;4989189;28;20957;-55
2023/03/02 06:38:16;;;;;;;12.67;11.87;;;18.80;45.20;;;;;;4989145;28;20585;-54
2023/03/02 06:40:43;;;;;;;12.43;11.27;;;18.80;45.10;;;;;;4988996;28;21058;-53
2023/03/02 06:43:10;;;;;;;10.43;9.93;;;18.80;45.10;;;;;;4989043;28;20534;-55
2023/03/02 06:45:37;;;;;;;12.67;12.07;;;18.80;45.00;;;;;;4989144;28;20483;-57
2023/03/02 06:48:04;;;;;;;11.10;10.60;;;18.80;45.00;;;;;;4989170;28;20555;-55
2023/03/02 06:50:31;;;;;;;11.80;11.13;;;18.80;44.90;;;;;;4989214;28;21021;-56
2023/03/02 06:52:58;;;;;;;10.87;10.50;;;18.80;44.90;;;;;;4989022;28;20535;-57
2023/03/02 06:55:27;;;;;;;12.70;11.60;;;18.80;44.90;;;;;;4988968;28;20490;-57
2023/03/02 06:57:54;;;;;;;10.97;10.47;;;18.80;44.80;;;;;;4988929;28;20882;-57
2023/03/02 07:00:26;;;;;;;12.50;11.33;;;18.80;44.80;;;;;;4992351;28;20526;-55
2023/03/02 07:02:54;;;;;;;12.10;11.50;;;18.80;44.80;;;;;;4992179;28;20443;-56
2023/03/02 07:05:22;;;;;;;12.03;11.17;;;18.80;44.70;;;;;;4992359;28;20538;-56
2023/03/02 07:07:49;;;;;;;11.00;10.30;;;18.80;44.70;;;;;;4992182;28;20471;-53
2023/03/02 07:10:16;;;;;;;10.60;10.10;;;18.80;44.60;;;;;;4992313;28;20489;-57
2023/03/02 07:12:44;;;;;;;12.00;11.40;;;18.80;44.60;;;;;;4992101;28;20485;-57
2023/03/02 07:15:12;;;;;;;10.40;9.90;;;18.80;44.60;;;;;;4992279;28;21025;-56
2023/03/02 07:17:40;;;;;;;12.10;11.30;;;18.80;44.60;;;;;;4992146;28;20475;-54
2023/03/02 07:20:09;;;;;;;11.10;10.60;;;18.80;44.60;;;;;;4992146;28;20506;-55
2023/03/02 07:22:36;;;;;;;13.20;12.43;;;18.80;44.60;;;;;;4991804;28;20565;-52
2023/03/02 07:25:04;;;;;;;12.67;11.97;;;18.80;44.50;;;;;;4992052;28;20563;-53
2023/03/02 07:27:31;;;;;;;12.60;11.90;;;18.80;44.50;;;;;;4991839;28;20491;-52
2023/03/02 07:30:00;;;;;;;13.40;12.40;;;18.80;44.50;;;;;;4991991;28;20483;-54
2023/03/02 07:32:27;;;;;;;11.40;10.93;;;18.80;44.50;;;;;;4991739;28;20479;-51
2023/03/02 07:34:54;;;;;;;11.80;11.20;;;18.80;44.40;;;;;;4991842;28;20478;-54
2023/03/02 07:37:21;;;;;;;10.03;9.53;;;18.80;44.40;;;;;;4991870;28;20612;-53
2023/03/02 07:39:48;;;;;;;10.90;10.50;;;18.80;44.40;;;;;;4991826;28;20483;-52
2023/03/02 07:42:16;;;;;;;12.60;11.90;;;18.80;44.40;;;;;;4991597;28;20486;-53
2023/03/02 07:44:43;;;;;;;11.30;10.90;;;18.80;44.40;;;;;;4991716;28;20534;-55
2023/03/02 07:47:11;;;;;;;12.90;12.10;;;18.80;44.40;;;;;;4991680;28;20535;-51
2023/03/02 07:49:38;;;;;;;12.50;11.90;;;18.80;44.40;;;;;;4991574;28;20451;-58
2023/03/02 07:52:05;;;;;;;11.17;10.87;;;18.80;44.30;;;;;;4991561;28;20485;-55
2023/03/02 07:54:32;;;;;;;11.27;10.70;;;18.80;44.30;;;;;;4991453;28;20530;-55
2023/03/02 07:56:59;;;;;;;11.67;11.17;;;18.80;44.40;;;;;;4991487;28;20538;-55
2023/03/02 07:59:28;;;;;;;11.23;10.93;;;18.80;44.40;;;;;;4991674;28;20478;-58
2023/03/02 08:01:55;;;;;;;11.60;10.67;;;18.80;44.40;;;;;;4991302;28;20569;-53
2023/03/02 08:04:24;;;;;;;11.40;10.80;;;18.80;44.40;;;;;;4991513;28;20475;-56
2023/03/02 08:06:51;;;;;;;11.27;10.87;;;18.80;44.40;;;;;;4991247;28;20483;-58
2023/03/02 08:09:18;;;;;;;10.60;10.30;;;18.80;44.40;;;;;;4990990;28;20532;-57
2023/03/02 08:11:46;;;;;;;10.97;10.57;;;18.80;44.40;;;;;;4991205;28;20475;-57
2023/03/02 08:14:14;;;;;;;10.63;10.30;;;18.80;44.30;;;;;;4991211;28;20826;-55
2023/03/02 08:16:41;;;;;;;11.07;10.67;;;18.80;44.30;;;;;;4991233;28;20451;-55
2023/03/02 08:19:08;;;;;;;11.93;11.43;;;18.80;44.30;;;;;;4991137;28;20554;-54
2023/03/02 08:21:36;;;;;;;11.53;11.00;;;18.80;44.30;;;;;;4991039;28;20513;-54
2023/03/02 08:24:03;;;;;;;11.60;11.07;;;18.80;44.30;;;;;;4991088;28;20905;-57
2023/03/02 08:26:30;;;;;;;11.93;11.50;;;18.90;44.30;;;;;;4990863;28;20501;-53
2023/03/02 08:28:58;;;;;;;11.53;11.07;;;18.90;44.30;;;;;;4991022;28;20502;-55
2023/03/02 08:31:25;;;;;;;10.40;10.00;;;18.90;44.20;;;;;;4990932;28;20572;-54
2023/03/02 08:33:51;;;;;;;11.40;11.00;;;18.80;44.20;;;;;;4990819;28;20490;-57
2023/03/02 08:36:20;;;;;;;11.10;10.60;;;18.90;44.20;;;;;;4990916;28;21038;-55
2023/03/02 08:38:49;;;;;;;9.97;9.60;;;18.90;44.20;;;;;;4990869;28;20904;-54
2023/03/02 08:41:18;;;;;;;10.87;10.40;;;18.90;44.20;;;;;;4991169;28;20544;-51
2023/03/02 08:43:45;;;;;;;10.80;10.40;;;18.80;44.10;;;;;;4990800;28;20451;-52
2023/03/02 08:46:13;;;;;;;11.40;10.90;;;18.80;44.10;;;;;;4990945;28;20967;-55
2023/03/02 08:48:41;;;;;;;10.53;10.13;;;18.80;44.10;;;;;;4990620;28;20551;-57
2023/03/02 08:51:10;;;;;;;11.20;10.80;;;18.90;44.20;;;;;;4990675;28;20886;-56
2023/03/02 08:53:39;;;;;;;9.97;9.60;;;18.80;44.10;;;;;;4990703;28;20474;-56
2023/03/02 08:56:15;;;;;;;11.47;10.97;;;18.80;44.10;;;;;;4990755;28;20485;-56
2023/03/02 08:58:42;;;;;;;10.73;10.23;;;18.80;44.60;;;;;;4990635;28;20506;-53
2023/03/02 09:01:13;;;;;;;10.83;10.37;;;18.80;44.10;;;;;;4990664;28;20483;-57
2023/03/02 09:03:40;;;;;;;11.70;11.20;;;18.80;44.10;;;;;;4990697;28;20526;-55
2023/03/02 09:06:07;;;;;;;11.40;11.00;;;18.80;44.10;;;;;;4990463;28;20499;-51
2023/03/02 09:08:34;;;;;;;11.00;10.60;;;18.80;44.10;;;;;;4990448;28;20550;-53
2023/03/02 09:11:01;;;;;;;10.53;10.23;;;18.80;44.10;;;;;;4990553;28;20877;-55
2023/03/02 09:13:29;;;;;;;10.10;9.80;;;18.80;44.10;;;;;;4990222;28;20479;-52
2023/03/02 09:15:56;;;;;;;10.13;9.73;;;18.80;44.10;;;;;;4990372;28;20530;-55
2023/03/02 09:18:23;;;;;;;10.87;10.50;;;18.80;44.10;;;;;;4990190;28;20898;-55
2023/03/02 09:20:51;;;;;;;11.43;11.00;;;18.80;44.10;;;;;;4989584;28;20475;-57
2023/03/02 09:23:18;;;;;;;11.77;11.17;;;18.80;44.10;;;;;;4989973;28;20497;-55
2023/03/02 09:25:46;;;;;;;10.77;10.40;;;18.80;44.10;;;;;;4990094;28;20891;-53
2023/03/02 09:28:13;;;;;;;11.93;11.43;;;18.90;44.10;;;;;;4990155;28;20550;-53
2023/03/02 09:30:41;;;;;;;11.57;11.07;;;18.90;44.10;;;;;;4990184;28;20542;-51
2023/03/02 09:33:08;;;;;;;11.37;10.97;;;18.90;44.10;;;;;;4990022;28;20696;-49
2023/03/02 09:35:38;;;;;;;11.67;11.17;;;18.90;44.10;;;;;;4990030;28;20475;-54
2023/03/02 09:38:05;;;;;;;10.93;10.60;;;18.90;44.00;;;;;;4989937;28;20471;-55
2023/03/02 09:40:34;;;;;;;11.20;10.80;;;18.90;44.00;;;;;;4990184;28;20486;-51
2023/03/02 09:43:13;;;;;;;11.53;10.73;;;18.90;44.00;;;;;;4989894;28;20921;-55
2023/03/02 09:45:56;;;;;;;10.37;10.07;;;18.90;44.00;;;;;;4990147;28;20489;-55
2023/03/02 09:48:35;;;;;;;10.87;10.47;;;18.90;44.00;;;;;;4990000;28;20498;-55
2023/03/02 09:51:12;;;;;;;11.60;11.20;;;18.90;44.00;;;;;;4990065;28;20478;-58
2023/03/02 09:53:44;;;;;;;11.30;10.80;;;18.90;44.00;;;;;;4990150;28;21115;-57
2023/03/02 09:56:15;;;;;;;12.10;11.60;;;18.90;43.90;;;;;;4989994;28;20475;-56
2023/03/02 09:58:47;;;;;;;10.77;10.47;;;18.90;43.90;;;;;;4989770;28;20502;-54
2023/03/02 10:01:21;;;;;;;10.20;9.87;;;18.90;43.90;;;;;;5002700;28;20454;-51
2023/03/02 10:03:55;;;;;;;11.33;10.93;;;18.90;43.90;;;;;;4990182;28;20469;-52
2023/03/02 10:06:21;;;;;;;10.33;10.03;;;18.90;44.50;;;;;;4990904;28;20475;-56
2023/03/02 10:08:49;;;;;;;10.87;10.57;;;18.90;43.90;;;;;;4991122;28;20490;-55
2023/03/02 10:11:22;;;;;;;11.73;11.33;;;18.90;43.90;;;;;;4992358;28;20458;-55
2023/03/02 10:13:55;;;;;;;11.90;11.40;;;18.90;43.90;;;;;;5001348;28;20434;-57
2023/03/02 10:16:32;;;;;;;11.37;10.97;;;18.90;43.90;;;;;;5003658;28;20439;-58
2023/03/02 10:19:06;;;;;;;11.17;10.80;;;18.90;43.90;;;;;;5008962;28;20466;-56
2023/03/02 10:21:39;;;;;;;11.27;10.90;;;18.90;43.90;;;;;;5007951;28;20442;-58
2023/03/02 10:24:15;;;;;;;10.80;10.40;;;18.90;43.80;;;;;;5008775;28;20447;-57
2023/03/02 10:26:44;;;;;;;11.10;10.80;;;18.80;43.80;;;;;;5008088;28;20458;-58
2023/03/02 10:29:32;;;;;;;10.60;10.30;;;18.90;43.90;;;;;;4997082;28;20458;-56
2023/03/02 10:32:06;;;;;;;10.60;10.20;;;18.90;43.90;;;;;;4989186;28;20522;-51
2023/03/02 10:34:37;;;;;;;10.97;10.67;;;18.90;43.90;;;;;;4992739;28;20489;-57
2023/03/02 10:37:13;;;;;;;10.40;10.10;;;18.80;43.80;;;;;;4992878;28;20522;-56
2023/03/02 10:39:40;;;;;;;11.13;10.73;;;18.80;43.80;;;;;;4992643;28;20485;-53
2023/03/02 10:42:14;;;;;;;11.87;11.33;;;18.90;43.90;;;;;;4992407;28;20490;-51
2023/03/02 10:44:44;;;;;;;11.70;11.10;;;18.90;43.80;;;;;;4992627;28;20490;-56
2023/03/02 10:47:24;;;;;;;10.70;10.40;;;18.90;43.80;;;;;;4992438;28;20539;-53
2023/03/02 10:49:52;;;;;;;10.13;9.80;;;18.90;43.80;;;;;;4992530;28;20972;-52
2023/03/02 10:52:22;;;;;;;10.80;10.50;;;18.90;43.80;;;;;;4992249;28;21018;-49
2023/03/02 10:54:51;;;;;;;10.17;9.87;;;18.90;43.80;;;;;;4992370;28;20526;-55
2023/03/02 10:57:30;;;;;;;11.37;11.07;;;18.90;43.80;;;;;;4992411;28;20510;-52
2023/03/02 11:00:01;;;;;;;11.33;10.83;;;19.00;43.80;;;;;;4992545;28;20872;-53
2023/03/02 11:02:32;;;;;;;11.90;11.40;;;19.00;43.80;;;;;;4992097;28;20518;-50
2023/03/02 11:05:19;;;;;;;10.60;10.30;;;19.00;43.80;;;;;;4992355;28;20538;-57
2023/03/02 11:07:53;;;;;;;11.37;10.97;;;19.00;43.80;;;;;;4992210;28;20473;-56
2023/03/02 11:10:22;;;;;;;11.03;10.73;;;19.00;43.80;;;;;;4992228;28;20451;-56
2023/03/02 11:12:51;;;;;;;10.33;10.03;;;19.00;43.70;;;;;;4992039;28;20450;-55
2023/03/02 11:15:37;;;;;;;10.90;10.50;;;19.00;43.80;;;;;;4992199;28;20494;-54
2023/03/02 11:18:12;;;;;;;10.77;10.47;;;19.00;43.70;;;;;;4992053;28;20471;-56
2023/03/02 11:20:43;;;;;;;10.87;10.47;;;19.00;43.70;;;;;;4992145;28;21022;-55
2023/03/02 11:23:20;;;;;;;10.30;10.00;;;19.00;43.70;;;;;;4992016;28;20569;-54
2023/03/02 11:25:53;;;;;;;10.53;10.23;;;19.00;43.70;;;;;;4991867;28;20493;-58
2023/03/02 11:28:34;;;;;;;10.77;10.27;;;19.00;43.70;;;;;;4991947;28;20549;-54
2023/03/02 11:31:05;;;;;;;10.47;10.17;;;19.00;43.70;;;;;;4992082;28;20956;-52
2023/03/02 11:33:37;;;;;;;10.30;9.80;;;19.00;43.70;;;;;;4991688;28;20938;-58
2023/03/02 11:36:10;;;;;;;10.57;10.27;;;19.00;43.90;;;;;;4991884;28;20539;-55
2023/03/02 11:38:45;;;;;;;11.20;10.90;;;19.00;43.70;;;;;;4991627;28;20546;-53
2023/03/02 11:41:23;;;;;;;11.83;11.43;;;19.00;43.70;;;;;;4991758;28;20801;-53
2023/03/02 11:43:52;;;;;;;10.23;9.83;;;19.00;43.70;;;;;;4991113;28;20490;-55
2023/03/02 11:46:24;;;;;;;11.00;10.60;;;19.00;43.70;;;;;;4991719;28;20547;-56
2023/03/02 11:48:55;;;;;;;11.03;10.63;;;19.00;43.70;;;;;;4991620;28;20472;-56
2023/03/02 11:51:24;;;;;;;11.70;11.23;;;19.00;43.70;;;;;;4991585;28;20511;-57
2023/03/02 11:53:55;;;;;;;11.37;10.97;;;19.00;43.70;;;;;;4991460;28;20479;-56
2023/03/02 11:56:23;;;;;;;10.47;10.17;;;19.00;43.70;;;;;;4991595;28;20879;-55
2023/03/02 11:58:56;;;;;;;11.20;10.80;;;19.00;43.60;;;;;;4991489;28;20994;-56
2023/03/02 12:01:26;;;;;;;10.20;9.90;;;19.00;43.70;;;;;;4991338;28;20927;-56
2023/03/02 12:04:05;;;;;;;11.30;11.00;;;19.00;43.70;;;;;;4991225;28;20574;-54
2023/03/02 12:06:38;;;;;;;11.07;10.67;;;19.00;43.60;;;;;;4991451;28;20497;-50
2023/03/02 12:09:29;;;;;;;10.80;10.50;;;19.00;43.60;;;;;;4991177;28;20989;-54
2023/03/02 12:12:00;;;;;;;11.20;10.90;;;19.00;43.60;;;;;;4991223;28;20465;-49
2023/03/02 12:14:37;;;;;;;10.80;10.40;;;19.00;43.60;;;;;;4991341;28;20490;-52
2023/03/02 12:17:17;;;;;;;11.17;10.77;;;19.00;43.60;;;;;;4991250;28;20478;-52
2023/03/02 12:19:46;;;;;;;11.33;10.83;;;19.10;43.60;;;;;;4991304;28;20883;-57
2023/03/02 12:22:14;;;;;;;11.13;10.83;;;19.10;44.20;;;;;;4990973;28;21030;-56
2023/03/02 12:24:44;;;;;;;10.80;10.33;;;19.10;43.70;;;;;;4991031;28;20812;-58
2023/03/02 12:27:25;;;;;;;10.70;10.40;;;19.10;43.60;;;;;;4990919;28;20503;-56
2023/03/02 12:29:57;;;;;;;10.57;10.17;;;19.10;43.60;;;;;;4991051;28;20455;-53
2023/03/02 12:32:26;;;;;;;11.50;11.10;;;19.20;43.70;;;;;;4990751;28;20526;-54
2023/03/02 12:34:59;;;;;;;10.87;10.47;;;19.20;43.70;;;;;;4991138;28;20966;-51
2023/03/02 12:37:29;;;;;;;10.40;10.00;;;19.10;43.50;;;;;;4990921;28;20559;-55
2023/03/02 12:40:32;;;;;;;10.93;10.53;;;19.20;43.60;;;;;;4990904;28;20487;-55